Dati Storici

Data ora Umidita' aria (%) Temperatura aria (°C) Rad globale (W/m²) Gonioanemometro (°) Tacoanemometro (m/s) Pioggia (mm)
30-06-2020 18:10 66.9 % 27.887 -64.132 1.264 0 0
30-06-2020 18:00 68.3 % 27.755 -78.585 1.635 0 0
30-06-2020 17:50 69 % 27.513 -74.356 0.788 0 0
30-06-2020 17:40 67.7 % 27.619 -61.156 1.559 0 0
30-06-2020 17:30 67.2 % 29.221 -47.074 0.881 0 0
30-06-2020 17:20 66.4 % 27.828 -61.659 1.531 0 0
30-06-2020 17:10 63 % 28.293 -52.543 0.998 0 0
30-06-2020 17:00 57.4 % 29.398 -46.85 1.588 0 0
30-06-2020 16:50 57.2 % 29.608 -42.409 1.383 0 0
30-06-2020 16:40 57.6 % 29.261 -65.649 1.087 0 0
30-06-2020 16:30 57.1 % 29.792 -43.105 1.289 0 0
30-06-2020 16:20 57.5 % 29.694 -51.412 0.511 0 0
30-06-2020 16:10 57.9 % 29.105 -75.611 1.82 0 0
30-06-2020 16:00 58.9 % 29.6 -78.487 1.301 0 0
30-06-2020 15:50 59.2 % 29.115 -52.189 2.77 0 0
30-06-2020 15:40 59.6 % 29.311 -47.549 1.955 0 0
30-06-2020 15:30 61.1 % 29.711 -48.964 1.051 0 0
30-06-2020 15:20 60 % 29.016 -70.89 1.69 0 0
30-06-2020 15:10 60.6 % 29.571 -45.448 1.39 0 0
30-06-2020 15:00 61.3 % 29.86 -60.996 2.65 0 0

I dati sono presentati in modo automatico a scopo informativo. In seguito a verifica i dati possono subire modifiche o essere invalidati e non riportati negli archivi definitivi.